Time;durP1;ratioP1;P1;durP2;ratioP2;P2;SDS_P1;SDS_P2;PMS_P1;PMS_P2;Temp;Humidity;BMP_temperature;BMP_pressure;BME280_temperature;BME280_humidity;BME280_pressure;Samples;Min_cycle;Max_cycle;Signal;HPM_P1;HPM_P2
2023/04/15 00:01:59;;;;;;;20.10;9.13;;;;;;;;;;5061085;28;20414;-72
2023/04/15 00:04:24;;;;;;;17.90;8.85;;;;;;;;;;5055282;28;20078;-72
2023/04/15 00:06:51;;;;;;;19.60;9.20;;;;;;;;;;5058660;28;20036;-73
2023/04/15 00:09:17;;;;;;;19.65;9.05;;;;;;;;;;5059082;28;20285;-72
2023/04/15 00:11:42;;;;;;;14.98;7.93;;;;;;;;;;5039509;28;20556;-72
2023/04/15 00:14:08;;;;;;;12.57;7.97;;;;;;;;;;5044394;28;20123;-71
2023/04/15 00:16:33;;;;;;;16.90;8.03;;;;;;;;;;5045849;28;20025;-71
2023/04/15 00:18:58;;;;;;;21.27;8.77;;;;;;;;;;5046365;28;20058;-71
2023/04/15 00:21:23;;;;;;;22.40;9.47;;;;;;;;;;5065063;28;20032;-71
2023/04/15 00:23:51;;;;;;;14.57;7.97;;;;;;;;;;5058517;28;20286;-72
2023/04/15 00:26:18;;;;;;;13.02;7.50;;;;;;;;;;5053611;28;20063;-72
2023/04/15 00:28:43;;;;;;;14.88;7.93;;;;;;;;;;5065250;28;20029;-72
2023/04/15 00:31:09;;;;;;;12.20;7.40;;;;;;;;;;5048851;28;20033;-72
2023/04/15 00:33:35;;;;;;;17.30;7.80;;;;;;;;;;5059120;28;20033;-72
2023/04/15 00:36:01;;;;;;;12.82;7.85;;;;;;;;;;5052739;28;20061;-72
2023/04/15 00:38:27;;;;;;;10.07;7.05;;;;;;;;;;5053258;28;20032;-72
2023/04/15 00:40:52;;;;;;;8.63;6.20;;;;;;;;;;5045889;28;20028;-72
2023/04/15 00:43:17;;;;;;;9.32;5.65;;;;;;;;;;5057622;28;20705;-72
2023/04/15 00:45:43;;;;;;;9.02;5.45;;;;;;;;;;5060021;28;20119;-73
2023/04/15 00:48:09;;;;;;;10.52;5.50;;;;;;;;;;5063888;28;20055;-73
2023/04/15 00:50:34;;;;;;;7.70;4.90;;;;;;;;;;5048486;28;20028;-73
2023/04/15 00:53:00;;;;;;;8.07;5.43;;;;;;;;;;5054339;28;20114;-73
2023/04/15 00:55:25;;;;;;;7.30;5.28;;;;;;;;;;5071269;28;20040;-72
2023/04/15 00:57:51;;;;;;;6.85;4.70;;;;;;;;;;5054868;28;20481;-71
2023/04/15 01:00:17;;;;;;;7.78;4.93;;;;;;;;;;5067940;28;20810;-72
2023/04/15 01:02:42;;;;;;;9.35;5.20;;;;;;;;;;5062497;28;20069;-71
2023/04/15 01:05:08;;;;;;;8.13;4.97;;;;;;;;;;5061301;28;20115;-72
2023/04/15 01:07:33;;;;;;;8.88;5.47;;;;;;;;;;5045981;28;20510;-72
2023/04/15 01:09:59;;;;;;;19.00;8.63;;;;;;;;;;5063309;28;20063;-72
2023/04/15 01:12:25;;;;;;;20.85;9.30;;;;;;;;;;5067324;28;20036;-72
2023/04/15 01:14:51;;;;;;;10.88;6.70;;;;;;;;;;5046871;28;20478;-71
2023/04/15 01:17:16;;;;;;;10.30;6.05;;;;;;;;;;5067767;28;20100;-73
2023/04/15 01:19:41;;;;;;;13.55;6.68;;;;;;;;;;5064171;28;20032;-73
2023/04/15 01:22:07;;;;;;;15.30;7.27;;;;;;;;;;5064778;28;20025;-74
2023/04/15 01:24:33;;;;;;;15.00;7.25;;;;;;;;;;5068422;28;20082;-73
2023/04/15 01:26:58;;;;;;;11.15;7.07;;;;;;;;;;5061421;28;20020;-73
2023/04/15 01:29:23;;;;;;;11.60;6.47;;;;;;;;;;5059794;28;20028;-74
2023/04/15 01:31:52;;;;;;;11.80;6.20;;;;;;;;;;5060793;28;20368;-72
2023/04/15 01:34:18;;;;;;;10.82;6.65;;;;;;;;;;5050511;28;20052;-73
2023/04/15 01:36:43;;;;;;;12.55;6.40;;;;;;;;;;5060369;28;20492;-72
2023/04/15 01:39:08;;;;;;;15.13;7.45;;;;;;;;;;5061459;28;20043;-72
2023/04/15 01:41:34;;;;;;;10.88;6.68;;;;;;;;;;5050314;28;20108;-71
2023/04/15 01:44:00;;;;;;;8.95;6.20;;;;;;;;;;5064873;28;20501;-70
2023/04/15 01:46:25;;;;;;;10.60;6.20;;;;;;;;;;5065946;28;20747;-72
2023/04/15 01:48:50;;;;;;;11.40;6.30;;;;;;;;;;5049101;28;20119;-72
2023/04/15 01:51:16;;;;;;;11.33;6.40;;;;;;;;;;5059665;28;20277;-72
2023/04/15 01:53:41;;;;;;;11.23;6.45;;;;;;;;;;5064666;28;20276;-72
2023/04/15 01:56:06;;;;;;;12.23;5.17;;;;;;;;;;5061166;28;20102;-73
2023/04/15 01:58:32;;;;;;;8.52;4.45;;;;;;;;;;5057871;28;20020;-72
2023/04/15 02:00:57;;;;;;;9.13;4.10;;;;;;;;;;5051141;28;20028;-73
2023/04/15 02:03:23;;;;;;;6.10;3.70;;;;;;;;;;5064317;28;20055;-72
2023/04/15 02:05:49;;;;;;;6.88;4.00;;;;;;;;;;5046373;28;20117;-73
2023/04/15 02:08:15;;;;;;;6.97;3.75;;;;;;;;;;5066546;28;20541;-72
2023/04/15 02:10:40;;;;;;;5.85;3.17;;;;;;;;;;5051861;28;20033;-73
2023/04/15 02:13:06;;;;;;;4.18;2.90;;;;;;;;;;5060135;28;20029;-73
2023/04/15 02:15:32;;;;;;;4.88;2.67;;;;;;;;;;5046902;28;20119;-73
2023/04/15 02:17:59;;;;;;;5.22;2.70;;;;;;;;;;5065346;28;20025;-72
2023/04/15 02:20:25;;;;;;;5.50;2.80;;;;;;;;;;5059066;28;20032;-72
2023/04/15 02:22:51;;;;;;;4.10;2.95;;;;;;;;;;5063165;28;20031;-72
2023/04/15 02:25:16;;;;;;;4.50;2.58;;;;;;;;;;5038843;28;20036;-73
2023/04/15 02:27:42;;;;;;;4.70;2.88;;;;;;;;;;5062533;28;20037;-72
2023/04/15 02:30:08;;;;;;;5.88;2.78;;;;;;;;;;5065472;28;20033;-72
2023/04/15 02:32:33;;;;;;;4.28;2.85;;;;;;;;;;5044690;28;20031;-72
2023/04/15 02:35:02;;;;;;;4.60;2.67;;;;;;;;;;5067328;28;20111;-73
2023/04/15 02:37:29;;;;;;;5.40;2.80;;;;;;;;;;5065643;28;20032;-72
2023/04/15 02:39:55;;;;;;;3.72;2.78;;;;;;;;;;5065694;28;20059;-72
2023/04/15 02:42:20;;;;;;;4.55;3.28;;;;;;;;;;5065894;28;20043;-73
2023/04/15 02:44:45;;;;;;;7.47;2.60;;;;;;;;;;5070931;28;20032;-72
2023/04/15 02:47:11;;;;;;;3.80;2.42;;;;;;;;;;5066363;28;20389;-72
2023/04/15 02:49:36;;;;;;;8.85;3.20;;;;;;;;;;5043763;28;20040;-71
2023/04/15 02:52:02;;;;;;;4.45;2.90;;;;;;;;;;5055194;28;20038;-73
2023/04/15 02:54:27;;;;;;;5.43;3.00;;;;;;;;;;5052153;28;20032;-73
2023/04/15 02:56:54;;;;;;;4.70;2.97;;;;;;;;;;5063073;28;20638;-73
2023/04/15 02:59:19;;;;;;;4.22;2.60;;;;;;;;;;5060857;28;20035;-73
2023/04/15 03:01:45;;;;;;;4.57;2.90;;;;;;;;;;5067371;28;20020;-73
2023/04/15 03:04:10;;;;;;;4.70;2.95;;;;;;;;;;5067474;28;20440;-73
2023/04/15 03:06:35;;;;;;;5.50;2.50;;;;;;;;;;5048061;28;20016;-73
2023/04/15 03:09:01;;;;;;;6.03;2.80;;;;;;;6.59;nan;99658.31;5051260;28;20364;-73
2023/04/15 03:11:27;;;;;;;6.40;2.72;;;;;;;;;;5046296;28;20024;-73
2023/04/15 03:13:52;;;;;;;3.88;2.55;;;;;;;;;;5046876;28;20032;-72
2023/04/15 03:16:17;;;;;;;4.72;2.58;;;;;;;;;;5060449;28;20025;-72
2023/04/15 03:18:43;;;;;;;3.33;2.07;;;;;;;;;;5061519;28;20469;-72
2023/04/15 03:21:08;;;;;;;4.63;2.50;;;;;;;;;;5063485;28;20292;-72
2023/04/15 03:23:33;;;;;;;3.67;2.30;;;;;;;;;;5069355;28;20283;-74
2023/04/15 03:26:02;;;;;;;3.83;2.00;;;;;;;;;;5063200;28;20286;-73
2023/04/15 03:28:28;;;;;;;3.03;1.90;;;;;;;;;;5050763;28;20390;-74
2023/04/15 03:30:54;;;;;;;6.10;2.03;;;;;;;;;;5067106;28;20031;-72
2023/04/15 03:33:19;;;;;;;3.80;2.25;;;;;;;;;;5066924;28;20024;-72
2023/04/15 03:35:45;;;;;;;3.20;1.90;;;;;;;;;;5066581;28;20055;-72
2023/04/15 03:38:10;;;;;;;2.97;1.90;;;;;;;;;;5049637;28;20483;-72
2023/04/15 03:40:36;;;;;;;2.30;1.88;;;;;;;;;;5048460;28;20029;-72
2023/04/15 03:43:01;;;;;;;3.37;1.60;;;;;;;;;;5055435;28;20436;-72
2023/04/15 03:45:26;;;;;;;4.93;1.67;;;;;;;;;;5055747;28;20037;-73
2023/04/15 03:47:51;;;;;;;2.92;1.80;;;;;;;;;;5058030;28;20280;-72
2023/04/15 03:50:17;;;;;;;2.63;1.83;;;;;;;6.44;nan;99657.88;5049723;28;20032;-72
2023/04/15 03:52:43;;;;;;;5.53;2.10;;;;;;;;;;5059268;28;20027;-72
2023/04/15 03:55:08;;;;;;;3.78;1.90;;;;;;;;;;5060390;28;20082;-72
2023/04/15 03:57:37;;;;;;;4.13;2.40;;;;;;;;;;5064102;28;20048;-71
2023/04/15 04:00:03;;;;;;;7.15;2.40;;;;;;;;;;5064202;28;20495;-72
2023/04/15 04:02:28;;;;;;;4.85;2.30;;;;;;;;;;5052490;28;20040;-73
2023/04/15 04:04:54;;;;;;;4.17;2.43;;;;;;;;;;5061533;28;20035;-71
2023/04/15 04:07:19;;;;;;;7.73;2.40;;;;;;;;;;5063728;28;20033;-73
2023/04/15 04:09:45;;;;;;;3.25;2.28;;;;;;;;;;5057381;28;20284;-69
2023/04/15 04:12:10;;;;;;;6.15;2.55;;;;;;;;;;5063244;28;20037;-73
2023/04/15 04:14:35;;;;;;;6.20;3.40;;;;;;;;;;5060826;28;20078;-73
2023/04/15 04:17:01;;;;;;;4.77;2.90;;;;;;;;;;5042421;28;20025;-73
2023/04/15 04:19:26;;;;;;;5.40;3.17;;;;;;;;;;5041369;28;20036;-72
2023/04/15 04:21:51;;;;;;;5.90;2.95;;;;;;;;;;5047368;28;20277;-73
2023/04/15 04:24:16;;;;;;;5.13;3.15;;;;;;;;;;5049473;28;20682;-73
2023/04/15 04:26:42;;;;;;;7.70;3.17;;;;;;;;;;5042411;28;20093;-73
2023/04/15 04:29:07;;;;;;;5.63;3.37;;;;;;;;;;5069962;28;20311;-72
2023/04/15 04:31:32;;;;;;;4.93;2.83;;;;;;;;;;5062310;28;20276;-72
2023/04/15 04:33:57;;;;;;;5.40;3.00;;;;;;;;;;5066105;28;20036;-73
2023/04/15 04:36:23;;;;;;;5.40;2.70;;;;;;;;;;5055573;28;20397;-73
2023/04/15 04:38:48;;;;;;;4.20;2.60;;;;;;;;;;5059300;28;20471;-73
2023/04/15 04:41:13;;;;;;;4.83;2.20;;;;;;;;;;5037095;28;20281;-72
2023/04/15 04:43:38;;;;;;;6.28;2.90;;;;;;;;;;5047568;28;20304;-73
2023/04/15 04:46:04;;;;;;;6.80;2.60;;;;;;;;;;5063469;28;20110;-73
2023/04/15 04:48:29;;;;;;;6.13;2.50;;;;;;;;;;5043445;28;20358;-72
2023/04/15 04:50:54;;;;;;;5.30;2.50;;;;;;;;;;5069019;28;20238;-73
2023/04/15 04:53:20;;;;;;;7.87;2.60;;;;;;;;;;5062873;28;20055;-73
2023/04/15 04:58:00;;;;;;;4.38;2.25;;;;;;;;;;5155898;27;20506;-71
2023/04/15 05:00:26;;;;;;;6.80;2.70;;;;;;;;;;5131991;27;20107;-72
2023/04/15 05:02:51;;;;;;;5.03;2.72;;;;;;;;;;5128976;27;20019;-71
2023/04/15 05:05:16;;;;;;;6.67;2.80;;;;;;;;;;5114593;27;20112;-71
2023/04/15 05:07:42;;;;;;;6.87;2.70;;;;;;;;;;5115331;27;20795;-72
2023/04/15 05:10:07;;;;;;;7.60;2.65;;;;;;;;;;5135200;27;20385;-71
2023/04/15 05:12:32;;;;;;;4.53;2.92;;;;;;;;;;5132222;27;20057;-72
2023/04/15 05:14:58;;;;;;;5.38;2.50;;;;;;;;;;5117844;27;20059;-71
2023/04/15 05:17:23;;;;;;;5.50;2.80;;;;;;;6.50;nan;99742.50;5114533;27;20027;-71
2023/04/15 05:19:49;;;;;;;6.13;2.65;;;;;;;6.47;nan;99732.50;5131671;27;20035;-71
2023/04/15 05:22:14;;;;;;;4.82;3.00;;;;;;;6.56;nan;99739.03;5112637;27;20503;-72
2023/04/15 05:24:40;;;;;;;6.90;3.15;;;;;;;6.67;nan;99748.00;5135819;27;20038;-72
2023/04/15 05:27:07;;;;;;;5.55;3.08;;;;;;;6.76;nan;99752.75;5139061;27;20033;-73
2023/04/15 05:29:33;;;;;;;6.00;3.15;;;;;;;6.82;nan;99753.69;5112200;27;20158;-70
2023/04/15 05:31:58;;;;;;;6.15;2.80;;;;;;;6.88;nan;99757.28;5128763;27;20788;-71
2023/04/15 05:34:23;;;;;;;8.30;3.10;;;;;;;6.93;nan;99754.81;5129161;27;20022;-69
2023/04/15 05:36:49;;;;;;;5.15;2.70;;;;;;;6.91;nan;99738.50;5131340;27;20058;-70
2023/04/15 05:39:15;;;;;;;7.43;3.28;;;;;;;7.10;nan;99755.03;5132511;27;20050;-72
2023/04/15 05:41:40;;;;;;;5.75;2.55;;;;;;;7.11;nan;99746.16;5118691;27;20050;-70
2023/04/15 05:44:06;;;;;;;4.25;2.92;;;;;;;7.24;nan;99761.72;5115001;27;20026;-69
2023/04/15 05:46:31;;;;;;;5.13;2.35;;;;;;;7.31;nan;99751.19;5135822;27;20018;-69
2023/04/15 05:48:56;;;;;;;4.82;2.35;;;;;;;7.75;nan;99799.81;5116729;27;20027;-69
2023/04/15 05:51:22;;;;;;;7.30;3.03;;;;;;;7.52;nan;99753.34;5114909;27;20305;-70
2023/04/15 05:53:47;;;;;;;5.57;2.90;;;;;;;7.59;nan;99748.84;5131943;27;20114;-72
2023/04/15 05:56:13;;;;;;;4.53;2.60;;;;;;;7.72;nan;99753.09;5131443;27;20119;-70
2023/04/15 05:58:38;;;;;;;4.32;2.45;;;;;;;7.81;nan;99762.25;5134354;27;20086;-70
2023/04/15 06:01:04;;;;;;;7.03;3.00;;;;;;;7.89;nan;99769.78;5129024;27;20401;-69
2023/04/15 06:03:30;;;;;;;9.05;3.53;;;;;;;7.95;nan;99752.41;5128617;27;20078;-71
2023/04/15 06:05:55;;;;;;;6.82;2.78;;;;;;;8.13;nan;99758.59;5130406;27;20130;-70
2023/04/15 06:08:21;;;;;;;5.00;2.45;;;;;;;8.29;nan;99771.06;5107983;27;20835;-70
2023/04/15 06:10:46;;;;;;;5.85;2.40;;;;;;;8.36;nan;99773.59;5102584;27;20038;-70
2023/04/15 06:13:11;;;;;;;4.82;2.17;;;;;;;8.44;nan;99773.28;5116216;27;20115;-70
2023/04/15 06:15:37;;;;;;;6.00;2.30;;;;;;;8.63;nan;99789.75;5118006;27;20891;-70
2023/04/15 06:18:02;;;;;;;5.15;2.15;;;;;;;8.68;nan;99787.22;5118254;27;20019;-70
2023/04/15 06:20:28;;;;;;;6.47;2.45;;;;;;;8.76;nan;99793.97;5117617;27;20090;-70
2023/04/15 06:22:53;;;;;;;4.55;2.30;;;;;;;8.84;nan;99786.56;5115939;27;20055;-70
2023/04/15 06:25:19;;;;;;;4.20;1.95;;;;;;;9.08;nan;99799.69;5118946;27;20721;-71
2023/04/15 06:27:44;;;;;;;4.65;2.10;;;;;;;9.18;nan;99799.09;5118251;27;20019;-70
2023/04/15 06:30:10;;;;;;;4.88;2.20;;;;;;;9.21;nan;99794.16;5117582;27;20028;-72
2023/04/15 06:32:35;;;;;;;5.45;1.92;;;;;;;9.23;nan;99783.44;5117008;27;20032;-71
2023/04/15 06:35:01;;;;;;;4.97;1.90;;;;;;;9.29;nan;99785.94;5118752;27;20481;-71
2023/04/15 06:37:26;;;;;;;5.68;2.03;;;;;;;9.38;nan;99786.38;5118950;27;20036;-69
2023/04/15 06:39:52;;;;;;;6.15;2.00;;;;;;;9.41;nan;99780.69;5121489;27;20027;-69
2023/04/15 06:42:17;;;;;;;4.97;2.22;;;;;;;9.48;nan;99781.34;5117630;27;20034;-69
2023/04/15 06:44:42;;;;;;;5.00;2.30;;;;;;;9.53;nan;99768.31;5121980;27;20029;-68
2023/04/15 06:47:08;;;;;;;4.07;1.98;;;;;;;9.67;nan;99781.94;5100977;27;20603;-70
2023/04/15 06:49:34;;;;;;;3.83;2.13;;;;;;;9.75;nan;99788.69;5119276;27;20102;-69
2023/04/15 06:52:00;;;;;;;4.05;1.85;;;;;;;9.82;nan;99778.00;5118987;27;20033;-68
2023/04/15 06:54:26;;;;;;;2.88;1.90;;;;;;;9.87;nan;99781.56;5107601;27;20030;-69
2023/04/15 06:56:51;;;;;;;4.32;1.88;;;;;;;;;;5116036;27;20035;-69
2023/04/15 06:59:17;;;;;;;2.85;1.50;;;;;;;;;;5118116;27;20034;-69
2023/04/15 07:01:42;;;;;;;3.30;1.75;;;;;;;;;;5117354;27;20491;-69
2023/04/15 07:04:07;;;;;;;4.85;2.13;;;;;;;;;;5117199;27;20114;-69
2023/04/15 07:06:32;;;;;;;3.67;1.60;;;;;;;;;;5113783;27;20099;-70
2023/04/15 07:08:58;;;;;;;5.27;1.57;;;;;;;;;;5119524;27;20642;-69
2023/04/15 07:11:24;;;;;;;3.13;1.50;;;;;;;;;;5119956;27;20027;-69
2023/04/15 07:13:49;;;;;;;4.93;2.15;;;;;;;;;;5114999;27;20039;-68
2023/04/15 07:16:15;;;;;;;4.43;1.63;;;;;;;;;;5118674;27;20036;-69
2023/04/15 07:18:40;;;;;;;2.67;1.33;;;;;;;;;;5120567;27;20027;-68
2023/04/15 07:21:05;;;;;;;3.97;2.30;;;;;;;;;;5097241;27;20032;-74
2023/04/15 07:23:31;;;;;;;3.43;1.47;;;;;;;;;;5103865;27;20084;-74
2023/04/15 07:25:56;;;;;;;1.73;1.17;;;;;;;;;;5100426;27;20499;-74
2023/04/15 07:28:21;;;;;;;3.65;1.42;;;;;;;;;;5101826;27;20023;-73
2023/04/15 07:30:47;;;;;;;1.80;1.20;;;;;;;;;;5116706;27;20111;-74
2023/04/15 07:33:12;;;;;;;4.70;1.70;;;;;;;;;;5117106;27;20103;-73
2023/04/15 07:35:37;;;;;;;2.17;1.40;;;;;;;;;;5103167;27;20019;-74
2023/04/15 07:38:03;;;;;;;1.77;1.10;;;;;;;;;;5105974;27;20027;-75
2023/04/15 07:40:28;;;;;;;2.67;1.30;;;;;;;;;;5116527;27;20026;-75
2023/04/15 07:42:55;;;;;;;1.40;1.10;;;;;;;;;;5116063;27;20351;-75
2023/04/15 07:45:20;;;;;;;3.22;1.30;;;;;;;;;;5099831;28;20768;-74
2023/04/15 07:47:45;;;;;;;3.25;1.30;;;;;;;;;;5116123;27;20030;-74
2023/04/15 07:50:11;;;;;;;2.50;1.30;;;;;;;;;;5118394;27;20114;-73
2023/04/15 07:52:38;;;;;;;2.00;1.00;;;;;;;;;;5098705;27;20028;-75
2023/04/15 07:55:10;;;;;;;6.53;1.20;;;;;;;;;;5116876;27;20095;-71
2023/04/15 07:57:35;;;;;;;3.30;1.30;;;;;;;;;;5097941;28;20051;-70
2023/04/15 08:00:02;;;;;;;3.28;1.02;;;;;;;;;;5097878;28;20028;-70
2023/04/15 08:02:28;;;;;;;2.83;1.20;;;;;;;;;;5096732;28;20080;-70
2023/04/15 08:04:53;;;;;;;3.85;1.30;;;;;;;;;;5096140;28;20032;-70
2023/04/15 08:07:18;;;;;;;6.73;1.70;;;;;;;;;;5096097;28;20112;-70
2023/04/15 08:09:44;;;;;;;2.70;1.33;;;;;;;;;;5094777;27;20032;-69
2023/04/15 08:12:12;;;;;;;4.32;1.30;;;;;;;;;;5096641;27;20032;-70
2023/04/15 08:14:37;;;;;;;4.30;1.13;;;;;;;;;;5094649;27;20076;-71
2023/04/15 08:17:03;;;;;;;2.30;1.17;;;;;;;;;;5096716;28;20420;-71
2023/04/15 08:19:28;;;;;;;3.40;1.20;;;;;;;;;;5094912;28;20507;-70
2023/04/15 08:21:54;;;;;;;2.38;1.20;;;;;;;;;;5094900;28;20031;-71
2023/04/15 08:24:19;;;;;;;2.15;1.17;;;;;;;;;;5094678;28;20032;-70
2023/04/15 08:26:46;;;;;;;1.60;1.00;;;;;;;;;;5093991;28;20028;-69
2023/04/15 08:29:11;;;;;;;2.97;1.15;;;;;;;;;;5095823;28;20477;-71
2023/04/15 08:31:36;;;;;;;3.35;1.27;;;;;;;;;;5095187;27;20035;-70
2023/04/15 08:34:02;;;;;;;2.73;1.40;;;;;;;;;;5096703;28;20023;-71
2023/04/15 08:36:27;;;;;;;5.57;1.25;;;;;;;;;;5095744;28;20279;-70
2023/04/15 08:38:52;;;;;;;1.73;1.00;;;;;;;;;;5091684;27;20038;-70
2023/04/15 08:41:25;;;;;;;2.30;0.97;;;;;;;;;;5093198;27;20406;-70
2023/04/15 08:43:56;;;;;;;2.80;1.00;;;;;;;;;;5091861;28;20067;-70
2023/04/15 08:46:22;;;;;;;3.97;1.02;;;;;;;;;;5093630;28;20024;-70
2023/04/15 08:48:48;;;;;;;2.05;1.02;;;;;;;;;;5097679;28;20592;-70
2023/04/15 08:51:15;;;;;;;2.15;0.98;;;;;;;;;;5094553;28;20062;-69
2023/04/15 08:53:40;;;;;;;2.13;0.80;;;;;;;;;;5094777;28;20024;-70
2023/04/15 08:56:09;;;;;;;2.30;1.00;;;;;;;;;;5094210;28;20050;-70
2023/04/15 08:58:35;;;;;;;1.90;0.80;;;;;;;;;;5092134;28;20028;-66
2023/04/15 09:01:00;;;;;;;1.90;0.90;;;;;;;;;;5093589;28;20028;-68
2023/04/15 09:03:26;;;;;;;3.50;1.00;;;;;;;;;;5091857;28;20385;-68
2023/04/15 09:05:51;;;;;;;1.80;1.00;;;;;;;;;;5092795;28;20101;-67
2023/04/15 09:08:17;;;;;;;2.72;0.90;;;;;;;;;;5093750;28;20123;-68
2023/04/15 09:10:42;;;;;;;1.27;0.70;;;;;;;;;;5096933;28;20059;-68
2023/04/15 09:13:08;;;;;;;1.85;1.13;;;;;;;;;;5095173;28;20112;-68
2023/04/15 09:15:36;;;;;;;1.98;1.02;;;;;;;;;;5096621;28;20427;-66
2023/04/15 09:18:01;;;;;;;2.38;1.00;;;;;;;;;;5092426;28;20036;-68
2023/04/15 09:20:27;;;;;;;1.40;0.90;;;;;;;;;;5094142;28;20520;-67
2023/04/15 09:22:52;;;;;;;3.67;0.90;;;;;;;;;;5093102;28;20304;-68
2023/04/15 09:25:20;;;;;;;4.43;1.17;;;;;;;;;;5092929;28;20327;-68
2023/04/15 09:27:53;;;;;;;7.15;3.55;;;;;;;;;;5095222;28;20276;-67
2023/04/15 09:30:18;;;;;;;3.90;1.45;;;;;;;;;;5092936;28;20573;-67
2023/04/15 09:32:51;;;;;;;6.15;3.33;;;;;;;;;;5094131;28;20139;-68
2023/04/15 09:35:16;;;;;;;3.83;1.73;;;;;;;;;;5094432;28;20457;-68
2023/04/15 09:37:41;;;;;;;3.20;1.70;;;;;;;;;;5093983;28;20026;-68
2023/04/15 09:40:08;;;;;;;2.53;0.90;;;;;;;;;;5091886;28;20065;-68
2023/04/15 09:42:34;;;;;;;1.63;0.90;;;;;;;;;;5093120;28;20299;-72
2023/04/15 09:45:11;;;;;;;1.15;0.68;;;;;;;;;;5098318;27;20457;-72
2023/04/15 09:47:36;;;;;;;1.70;0.82;;;;;;;;;;5094828;27;20021;-72
2023/04/15 09:50:02;;;;;;;1.30;0.83;;;;;;;;;;5095819;28;20716;-72
2023/04/15 09:52:27;;;;;;;1.05;0.60;;;;;;;;;;5098199;28;20165;-73
2023/04/15 09:54:56;;;;;;;2.55;0.70;;;;;;;;;;5096456;28;20038;-72
2023/04/15 09:57:22;;;;;;;2.88;0.70;;;;;;;;;;5110810;27;20164;-72
2023/04/15 09:59:48;;;;;;;1.50;0.80;;;;;;;;;;5119382;27;20114;-72
2023/04/15 10:02:13;;;;;;;2.33;0.90;;;;;;;;;;5118277;27;21823;-72
2023/04/15 10:04:40;;;;;;;3.90;0.70;;;;;;;;;;5101330;27;20076;-73
2023/04/15 10:07:06;;;;;;;2.33;0.77;;;;;;;;;;5095534;27;20027;-68
2023/04/15 10:09:33;;;;;;;1.00;0.73;;;;;;;;;;5099220;27;20034;-68
2023/04/15 10:11:58;;;;;;;1.48;0.70;;;;;;;;;;5118576;27;20516;-68
2023/04/15 10:14:25;;;;;;;2.08;0.77;;;;;;;;;;5098236;27;20035;-67
2023/04/15 10:16:52;;;;;;;2.50;1.00;;;;;;;;;;5119285;27;20044;-68
2023/04/15 10:19:20;;;;;;;1.25;0.60;;;;;;;;;;5102459;27;20035;-67
2023/04/15 10:21:45;;;;;;;3.05;0.93;;;;;;;;;;5116831;27;20040;-72
2023/04/15 10:24:11;;;;;;;1.40;0.60;;;;;;;;;;5107329;27;20029;-73
2023/04/15 10:26:37;;;;;;;2.65;1.00;;;;;;;;;;5122596;27;20405;-67
2023/04/15 10:29:02;;;;;;;1.25;0.70;;;;;;;;;;5118108;27;20357;-68
2023/04/15 10:31:28;;;;;;;2.80;0.90;;;;;;;;;;5118997;27;20449;-72
2023/04/15 10:33:53;;;;;;;1.95;1.00;;;;;;;;;;5100145;27;20042;-72
2023/04/15 10:36:20;;;;;;;1.60;0.70;;;;;;;14.58;nan;99836.16;5118649;27;20032;-71
2023/04/15 10:38:45;;;;;;;2.60;0.90;;;;;;;;;;5115505;27;20031;-68
2023/04/15 10:41:15;;;;;;;1.13;0.73;;;;;;;14.52;nan;99825.81;5119357;27;20023;-68
2023/04/15 10:43:48;;;;;;;2.53;0.70;;;;;;;14.62;nan;99836.41;5119795;27;20028;-68
2023/04/15 10:46:17;;;;;;;1.70;0.93;;;;;;;14.66;nan;99832.97;5107081;27;20019;-68
2023/04/15 10:48:47;;;;;;;3.50;0.88;;;;;;;14.76;nan;99828.75;5117594;27;20586;-68
2023/04/15 10:51:13;;;;;;;1.85;0.80;;;;;;;14.92;nan;99834.78;5105419;27;20059;-70
2023/04/15 10:53:41;;;;;;;3.53;0.90;;;;;;;14.98;nan;99829.22;5118779;27;20027;-68
2023/04/15 10:56:07;;;;;;;2.90;0.88;;;;;;;;;;5103346;27;20040;-68
2023/04/15 10:58:42;;;;;;;1.77;0.93;;;;;;;;;;5102627;27;20038;-68
2023/04/15 11:01:09;;;;;;;1.95;0.70;;;;;;;;;;5119958;27;20074;-69
2023/04/15 11:03:35;;;;;;;1.27;0.90;;;;;;;;;;5115581;27;20031;-68
2023/04/15 11:06:01;;;;;;;2.05;0.80;;;;;;;;;;5094670;27;20400;-68
2023/04/15 11:09:01;;;;;;;2.08;0.80;;;;;;;;;;5115445;27;20073;-68
2023/04/15 11:12:08;;;;;;;1.75;0.80;;;;;;;15.29;nan;99829.16;5022261;28;20156;-67
2023/04/15 11:14:39;;;;;;;1.40;0.77;;;;;;;15.26;nan;99835.00;5022499;28;20042;-67
2023/04/15 11:17:04;;;;;;;1.05;0.70;;;;;;;;;;5022504;28;20124;-68
2023/04/15 11:19:39;;;;;;;1.67;0.60;;;;;;;;;;5020910;28;20254;-67
2023/04/15 11:22:10;;;;;;;1.52;0.73;;;;;;;;;;5005885;28;20048;-68
2023/04/15 11:24:36;;;;;;;2.20;0.80;;;;;;;;;;5023314;28;20072;-68
2023/04/15 11:27:01;;;;;;;0.80;0.57;;;;;;;;;;5004579;28;20682;-68
2023/04/15 11:29:30;;;;;;;1.88;0.70;;;;;;;;;;5003227;28;20025;-68
2023/04/15 11:32:08;;;;;;;1.30;0.60;;;;;;;;;;5023096;28;20025;-68
2023/04/15 11:34:34;;;;;;;1.17;0.70;;;;;;;;;;5022354;28;20047;-68
2023/04/15 11:37:04;;;;;;;1.15;0.70;;;;;;;15.30;nan;99826.25;5007124;28;20695;-68
2023/04/15 11:39:29;;;;;;;;;;;;;;;;;;5021552;28;20041;-67
2023/04/15 11:41:54;;;;;;;0.87;0.60;;;;;;;;;;5023498;28;19920;-69
2023/04/15 11:44:20;;;;;;;1.55;0.50;;;;;;;;;;5008411;28;20622;-68
2023/04/15 11:46:45;;;;;;;0.67;0.57;;;;;;;;;;5058791;27;20036;-68
2023/04/15 11:49:10;;;;;;;2.00;0.57;;;;;;;;;;5112783;27;20473;-67
2023/04/15 11:51:35;;;;;;;1.83;0.50;;;;;;;;;;5098688;28;20401;-67
2023/04/15 11:54:01;;;;;;;0.47;0.30;;;;;;;;;;5118199;27;20031;-67
2023/04/15 11:56:26;;;;;;;3.03;0.57;;;;;;;;;;5098927;27;20119;-67
2023/04/15 11:58:58;;;;;;;2.03;0.50;;;;;;;;;;5111535;27;20669;-68
2023/04/15 12:01:30;;;;;;;2.30;0.60;;;;;;;;;;5116788;27;20615;-68
2023/04/15 12:03:58;;;;;;;0.60;0.30;;;;;;;;;;5113611;27;20039;-68
2023/04/15 12:06:26;;;;;;;0.80;0.30;;;;;;;15.85;nan;99812.22;5111462;27;20020;-68
2023/04/15 12:08:51;;;;;;;1.67;0.60;;;;;;;;;;5114019;27;20083;-68
2023/04/15 12:11:17;;;;;;;1.00;0.50;;;;;;;;;;5111894;27;20034;-68
2023/04/15 12:13:43;;;;;;;2.15;0.52;;;;;;;;;;5117783;27;20642;-69
2023/04/15 12:16:08;;;;;;;0.50;0.30;;;;;;;;;;5116959;27;20019;-69
2023/04/15 12:18:36;;;;;;;1.77;0.73;;;;;;;;;;5099366;27;20015;-68
2023/04/15 12:21:09;;;;;;;2.08;0.50;;;;;;;;;;5100876;27;20367;-67
2023/04/15 12:23:37;;;;;;;0.40;0.40;;;;;;;15.76;nan;99788.16;5116724;27;20079;-68
2023/04/15 12:26:06;;;;;;;2.38;0.60;;;;;;;15.72;nan;99779.91;5115475;27;20023;-68
2023/04/15 12:28:34;;;;;;;0.90;0.55;;;;;;;15.92;nan;99789.66;5115181;27;20019;-67
2023/04/15 12:31:05;;;;;;;2.20;0.70;;;;;;;16.08;nan;99794.84;5101442;28;20043;-67
2023/04/15 12:33:34;;;;;;;0.77;0.60;;;;;;;16.22;nan;99795.03;5113786;27;20468;-69
2023/04/15 12:35:59;;;;;;;1.05;0.60;;;;;;;16.32;nan;99787.75;5095192;27;20103;-69
2023/04/15 12:38:24;;;;;;;0.70;0.60;;;;;;;;;;5111798;27;20039;-70
2023/04/15 12:40:50;;;;;;;1.90;0.50;;;;;;;;;;5112176;27;20036;-69
2023/04/15 12:43:16;;;;;;;2.45;0.82;;;;;;;16.56;nan;99781.72;5096928;27;20642;-70
2023/04/15 12:45:41;;;;;;;0.70;0.55;;;;;;;16.62;nan;99769.16;5114374;27;20457;-69
2023/04/15 12:48:08;;;;;;;1.90;0.63;;;;;;;16.63;nan;99771.56;5112716;27;20073;-69
2023/04/15 12:50:34;;;;;;;1.63;0.60;;;;;;;16.74;nan;99790.88;5098096;27;20038;-69
2023/04/15 12:52:59;;;;;;;1.05;0.65;;;;;;;16.63;nan;99792.81;5115458;27;20080;-68
2023/04/15 12:55:25;;;;;;;1.00;0.60;;;;;;;16.69;nan;99794.38;5117106;27;20028;-67
2023/04/15 12:57:51;;;;;;;1.20;0.68;;;;;;;16.76;nan;99802.00;5116716;27;20051;-67
2023/04/15 13:00:16;;;;;;;2.53;0.88;;;;;;;16.76;nan;99786.03;5120156;27;20019;-67
2023/04/15 13:02:44;;;;;;;0.93;0.60;;;;;;;16.82;nan;99795.59;5111822;27;20037;-68
2023/04/15 13:05:10;;;;;;;1.08;0.60;;;;;;;16.78;nan;99803.34;5113283;28;20423;-67
2023/04/15 13:07:38;;;;;;;1.73;0.68;;;;;;;16.74;nan;99804.94;5113179;27;20090;-66
2023/04/15 13:10:04;;;;;;;1.07;0.40;;;;;;;;;;5096678;28;20023;-70
2023/04/15 13:12:30;;;;;;;1.35;0.70;;;;;;;;;;5114221;27;20031;-70
2023/04/15 13:14:55;;;;;;;0.60;0.43;;;;;;;;;;5100451;28;20036;-70
2023/04/15 13:17:20;;;;;;;3.20;0.90;;;;;;;;;;5117080;27;20055;-68
2023/04/15 13:19:46;;;;;;;2.03;0.88;;;;;;;;;;5117070;27;20042;-69
2023/04/15 13:22:11;;;;;;;2.75;1.10;;;;;;;;;;5104057;27;20019;-69
2023/04/15 13:24:38;;;;;;;2.70;0.95;;;;;;;;;;5119235;27;20035;-69
2023/04/15 13:27:03;;;;;;;1.25;0.65;;;;;;;;;;5121142;27;20493;-68
2023/04/15 13:29:28;;;;;;;2.10;0.70;;;;;;;;;;5118895;27;20092;-69
2023/04/15 13:31:54;;;;;;;2.77;0.87;;;;;;;;;;5119559;27;20114;-68
2023/04/15 13:34:20;;;;;;;1.42;0.95;;;;;;;;;;5103895;27;20647;-70
2023/04/15 13:36:46;;;;;;;3.50;0.75;;;;;;;;;;5102606;27;20042;-69
2023/04/15 13:39:11;;;;;;;2.03;0.60;;;;;;;;;;5117078;27;20027;-70
2023/04/15 13:41:36;;;;;;;0.87;0.50;;;;;;;16.82;nan;99795.59;5117677;27;20039;-70
2023/04/15 13:44:05;;;;;;;1.92;0.70;;;;;;;16.79;nan;99781.00;5118185;27;20836;-68
2023/04/15 13:46:30;;;;;;;1.00;0.60;;;;;;;;;;5122129;27;20027;-67
2023/04/15 13:48:55;;;;;;;1.30;0.73;;;;;;;;;;5118594;27;20602;-68
2023/04/15 13:51:21;;;;;;;1.00;0.73;;;;;;;;;;5119367;27;20283;-69
2023/04/15 13:53:46;;;;;;;1.10;0.73;;;;;;;;;;5098310;27;20027;-70
2023/04/15 13:56:13;;;;;;;1.67;0.90;;;;;;;16.76;nan;99824.09;5118779;27;20039;-67